sensor_id;sensor_type;location;lat;lon;timestamp;temperature;humidity
45329;DHT22;31063;48.356;10.896;2022-09-16T00:01:12;13.20;99.90
45329;DHT22;31063;48.356;10.896;2022-09-16T00:03:38;13.20;99.90
45329;DHT22;31063;48.356;10.896;2022-09-16T00:06:05;13.20;99.90
45329;DHT22;31063;48.356;10.896;2022-09-16T00:08:31;13.20;99.90
45329;DHT22;31063;48.356;10.896;2022-09-16T00:11:00;13.20;99.90
45329;DHT22;31063;48.356;10.896;2022-09-16T00:13:27;13.20;99.90
45329;DHT22;31063;48.356;10.896;2022-09-16T00:15:53;13.20;99.90
45329;DHT22;31063;48.356;10.896;2022-09-16T00:18:19;13.20;99.90
45329;DHT22;31063;48.356;10.896;2022-09-16T00:20:47;13.20;99.90
45329;DHT22;31063;48.356;10.896;2022-09-16T00:23:13;13.20;99.90
45329;DHT22;31063;48.356;10.896;2022-09-16T00:25:39;13.20;99.90
45329;DHT22;31063;48.356;10.896;2022-09-16T00:28:05;13.10;99.90
45329;DHT22;31063;48.356;10.896;2022-09-16T00:30:31;13.10;99.90
45329;DHT22;31063;48.356;10.896;2022-09-16T00:32:56;13.10;99.90
45329;DHT22;31063;48.356;10.896;2022-09-16T00:35:22;13.10;99.90
45329;DHT22;31063;48.356;10.896;2022-09-16T00:37:47;13.10;99.90
45329;DHT22;31063;48.356;10.896;2022-09-16T00:40:13;13.10;99.90
45329;DHT22;31063;48.356;10.896;2022-09-16T00:42:39;13.10;99.90
45329;DHT22;31063;48.356;10.896;2022-09-16T00:45:18;13.10;99.90
45329;DHT22;31063;48.356;10.896;2022-09-16T00:48:12;13.10;99.90
45329;DHT22;31063;48.356;10.896;2022-09-16T00:50:47;13.10;99.90
45329;DHT22;31063;48.356;10.896;2022-09-16T00:53:19;13.10;99.90
45329;DHT22;31063;48.356;10.896;2022-09-16T00:55:47;13.20;99.90
45329;DHT22;31063;48.356;10.896;2022-09-16T01:00:51;13.10;99.90
45329;DHT22;31063;48.356;10.896;2022-09-16T01:03:18;13.20;99.90
45329;DHT22;31063;48.356;10.896;2022-09-16T01:05:43;13.10;99.90
45329;DHT22;31063;48.356;10.896;2022-09-16T01:08:10;13.20;99.90
45329;DHT22;31063;48.356;10.896;2022-09-16T01:10:36;13.20;99.90
45329;DHT22;31063;48.356;10.896;2022-09-16T01:13:07;13.20;99.90
45329;DHT22;31063;48.356;10.896;2022-09-16T01:18:34;13.20;99.90
45329;DHT22;31063;48.356;10.896;2022-09-16T01:26:50;13.20;99.90
45329;DHT22;31063;48.356;10.896;2022-09-16T01:29:25;13.20;99.90
45329;DHT22;31063;48.356;10.896;2022-09-16T01:53:36;13.30;99.90
45329;DHT22;31063;48.356;10.896;2022-09-16T01:56:41;13.30;99.90
45329;DHT22;31063;48.356;10.896;2022-09-16T01:59:21;13.30;99.90
45329;DHT22;31063;48.356;10.896;2022-09-16T02:02:17;13.40;99.90
45329;DHT22;31063;48.356;10.896;2022-09-16T02:04:50;13.30;99.90
45329;DHT22;31063;48.356;10.896;2022-09-16T02:07:21;13.30;99.90
45329;DHT22;31063;48.356;10.896;2022-09-16T02:09:51;13.40;99.90
45329;DHT22;31063;48.356;10.896;2022-09-16T02:12:26;13.30;99.90
45329;DHT22;31063;48.356;10.896;2022-09-16T02:14:58;13.30;99.90
45329;DHT22;31063;48.356;10.896;2022-09-16T02:17:26;13.30;99.90
45329;DHT22;31063;48.356;10.896;2022-09-16T02:19:59;13.30;99.90
45329;DHT22;31063;48.356;10.896;2022-09-16T02:22:31;13.30;99.90
45329;DHT22;31063;48.356;10.896;2022-09-16T02:24:58;13.30;99.90
45329;DHT22;31063;48.356;10.896;2022-09-16T02:27:26;13.30;99.90
45329;DHT22;31063;48.356;10.896;2022-09-16T02:29:57;13.30;99.90
45329;DHT22;31063;48.356;10.896;2022-09-16T02:32:26;13.20;99.90
45329;DHT22;31063;48.356;10.896;2022-09-16T02:34:53;13.20;99.90
45329;DHT22;31063;48.356;10.896;2022-09-16T02:37:25;13.20;99.90
45329;DHT22;31063;48.356;10.896;2022-09-16T02:39:56;13.10;99.90
45329;DHT22;31063;48.356;10.896;2022-09-16T02:42:27;13.10;99.90
45329;DHT22;31063;48.356;10.896;2022-09-16T02:44:53;13.10;99.90
45329;DHT22;31063;48.356;10.896;2022-09-16T02:53:21;13.10;99.90
45329;DHT22;31063;48.356;10.896;2022-09-16T02:56:02;13.00;99.90
45329;DHT22;31063;48.356;10.896;2022-09-16T02:58:29;13.00;99.90
45329;DHT22;31063;48.356;10.896;2022-09-16T03:00:55;13.00;99.90
45329;DHT22;31063;48.356;10.896;2022-09-16T03:03:23;13.00;99.90
45329;DHT22;31063;48.356;10.896;2022-09-16T03:08:42;13.00;99.90
45329;DHT22;31063;48.356;10.896;2022-09-16T03:11:19;13.00;99.90
45329;DHT22;31063;48.356;10.896;2022-09-16T03:16:44;13.00;99.90
45329;DHT22;31063;48.356;10.896;2022-09-16T03:29:06;12.90;99.90
45329;DHT22;31063;48.356;10.896;2022-09-16T03:36:43;12.90;99.90
45329;DHT22;31063;48.356;10.896;2022-09-16T03:39:10;12.80;99.90
45329;DHT22;31063;48.356;10.896;2022-09-16T03:41:36;12.80;99.90
45329;DHT22;31063;48.356;10.896;2022-09-16T03:44:02;12.80;99.90
45329;DHT22;31063;48.356;10.896;2022-09-16T03:46:28;12.90;99.90
45329;DHT22;31063;48.356;10.896;2022-09-16T03:48:55;12.80;99.90
45329;DHT22;31063;48.356;10.896;2022-09-16T03:51:20;12.80;99.90
45329;DHT22;31063;48.356;10.896;2022-09-16T03:53:46;12.80;99.90
45329;DHT22;31063;48.356;10.896;2022-09-16T03:56:11;12.80;99.90
45329;DHT22;31063;48.356;10.896;2022-09-16T03:58:37;12.80;99.90
45329;DHT22;31063;48.356;10.896;2022-09-16T04:01:03;12.80;99.90
45329;DHT22;31063;48.356;10.896;2022-09-16T04:03:29;12.70;99.90
45329;DHT22;31063;48.356;10.896;2022-09-16T04:05:56;12.70;99.90
45329;DHT22;31063;48.356;10.896;2022-09-16T04:08:22;12.70;99.90
45329;DHT22;31063;48.356;10.896;2022-09-16T04:13:20;12.70;99.90
45329;DHT22;31063;48.356;10.896;2022-09-16T04:15:45;12.70;99.90
45329;DHT22;31063;48.356;10.896;2022-09-16T04:18:11;12.70;99.90
45329;DHT22;31063;48.356;10.896;2022-09-16T04:20:36;12.70;99.90
45329;DHT22;31063;48.356;10.896;2022-09-16T04:23:02;12.70;99.90
45329;DHT22;31063;48.356;10.896;2022-09-16T04:25:28;12.70;99.90
45329;DHT22;31063;48.356;10.896;2022-09-16T04:27:54;12.70;99.90
45329;DHT22;31063;48.356;10.896;2022-09-16T04:30:20;12.70;99.90
45329;DHT22;31063;48.356;10.896;2022-09-16T04:32:45;12.70;99.90
45329;DHT22;31063;48.356;10.896;2022-09-16T04:35:11;12.70;99.90
45329;DHT22;31063;48.356;10.896;2022-09-16T04:37:37;12.70;99.90
45329;DHT22;31063;48.356;10.896;2022-09-16T04:40:03;12.80;99.90
45329;DHT22;31063;48.356;10.896;2022-09-16T04:42:28;12.80;99.90
45329;DHT22;31063;48.356;10.896;2022-09-16T04:44:54;12.70;99.90
45329;DHT22;31063;48.356;10.896;2022-09-16T04:47:20;12.70;99.90
45329;DHT22;31063;48.356;10.896;2022-09-16T04:49:45;12.80;99.90
45329;DHT22;31063;48.356;10.896;2022-09-16T04:52:11;12.80;99.90
45329;DHT22;31063;48.356;10.896;2022-09-16T04:54:36;12.80;99.90
45329;DHT22;31063;48.356;10.896;2022-09-16T04:57:02;12.80;99.90
45329;DHT22;31063;48.356;10.896;2022-09-16T04:59:28;12.80;99.90
45329;DHT22;31063;48.356;10.896;2022-09-16T05:01:53;12.80;99.90
45329;DHT22;31063;48.356;10.896;2022-09-16T05:04:19;12.80;99.90
45329;DHT22;31063;48.356;10.896;2022-09-16T05:06:44;12.80;99.90
45329;DHT22;31063;48.356;10.896;2022-09-16T05:09:11;12.80;99.90
45329;DHT22;31063;48.356;10.896;2022-09-16T05:11:38;12.90;99.90
45329;DHT22;31063;48.356;10.896;2022-09-16T05:14:05;12.80;99.90
45329;DHT22;31063;48.356;10.896;2022-09-16T05:16:32;12.80;99.90
45329;DHT22;31063;48.356;10.896;2022-09-16T05:18:58;12.80;99.90
45329;DHT22;31063;48.356;10.896;2022-09-16T05:21:25;12.80;99.90
45329;DHT22;31063;48.356;10.896;2022-09-16T05:23:51;12.90;99.90
45329;DHT22;31063;48.356;10.896;2022-09-16T05:26:26;12.80;99.90
45329;DHT22;31063;48.356;10.896;2022-09-16T05:28:52;12.90;99.90
45329;DHT22;31063;48.356;10.896;2022-09-16T05:31:26;12.90;99.90
45329;DHT22;31063;48.356;10.896;2022-09-16T05:34:13;12.90;99.90
45329;DHT22;31063;48.356;10.896;2022-09-16T05:36:39;12.90;99.90
45329;DHT22;31063;48.356;10.896;2022-09-16T05:39:11;13.00;99.90
45329;DHT22;31063;48.356;10.896;2022-09-16T05:41:37;12.90;99.90
45329;DHT22;31063;48.356;10.896;2022-09-16T05:44:03;12.90;99.90
45329;DHT22;31063;48.356;10.896;2022-09-16T05:46:30;13.00;99.90
45329;DHT22;31063;48.356;10.896;2022-09-16T05:48:56;13.00;99.90
45329;DHT22;31063;48.356;10.896;2022-09-16T05:51:22;13.00;99.90
45329;DHT22;31063;48.356;10.896;2022-09-16T05:53:49;13.10;99.90
45329;DHT22;31063;48.356;10.896;2022-09-16T05:56:17;13.10;99.90
45329;DHT22;31063;48.356;10.896;2022-09-16T05:58:44;13.10;99.90
45329;DHT22;31063;48.356;10.896;2022-09-16T06:01:16;13.10;99.90
45329;DHT22;31063;48.356;10.896;2022-09-16T06:03:43;13.20;99.90
45329;DHT22;31063;48.356;10.896;2022-09-16T06:06:26;13.20;99.90
45329;DHT22;31063;48.356;10.896;2022-09-16T06:08:55;13.20;99.90
45329;DHT22;31063;48.356;10.896;2022-09-16T06:11:22;13.20;99.90
45329;DHT22;31063;48.356;10.896;2022-09-16T06:13:55;13.30;99.90
45329;DHT22;31063;48.356;10.896;2022-09-16T06:16:22;13.30;99.90
45329;DHT22;31063;48.356;10.896;2022-09-16T06:18:50;13.30;99.90
45329;DHT22;31063;48.356;10.896;2022-09-16T06:21:16;13.30;99.90
45329;DHT22;31063;48.356;10.896;2022-09-16T06:23:41;13.30;99.90
45329;DHT22;31063;48.356;10.896;2022-09-16T06:26:13;13.40;99.90
45329;DHT22;31063;48.356;10.896;2022-09-16T06:28:39;13.40;99.90
45329;DHT22;31063;48.356;10.896;2022-09-16T06:31:09;13.40;99.90
45329;DHT22;31063;48.356;10.896;2022-09-16T06:33:35;13.50;99.90
45329;DHT22;31063;48.356;10.896;2022-09-16T06:36:12;13.50;99.90
45329;DHT22;31063;48.356;10.896;2022-09-16T06:38:38;13.50;99.90
45329;DHT22;31063;48.356;10.896;2022-09-16T06:41:06;13.60;99.90
45329;DHT22;31063;48.356;10.896;2022-09-16T06:43:33;13.60;99.90
45329;DHT22;31063;48.356;10.896;2022-09-16T06:45:59;13.60;99.90
45329;DHT22;31063;48.356;10.896;2022-09-16T06:48:26;13.70;99.90
45329;DHT22;31063;48.356;10.896;2022-09-16T06:51:05;13.70;99.90
45329;DHT22;31063;48.356;10.896;2022-09-16T06:53:32;13.70;99.90
45329;DHT22;31063;48.356;10.896;2022-09-16T06:56:01;13.70;99.90
45329;DHT22;31063;48.356;10.896;2022-09-16T06:58:30;13.80;99.90
45329;DHT22;31063;48.356;10.896;2022-09-16T07:00:56;13.70;99.90
45329;DHT22;31063;48.356;10.896;2022-09-16T07:03:21;13.80;99.90
45329;DHT22;31063;48.356;10.896;2022-09-16T07:05:58;13.80;99.90
45329;DHT22;31063;48.356;10.896;2022-09-16T07:08:30;13.80;99.90
45329;DHT22;31063;48.356;10.896;2022-09-16T07:11:03;13.80;99.90
45329;DHT22;31063;48.356;10.896;2022-09-16T07:13:29;13.90;99.90
45329;DHT22;31063;48.356;10.896;2022-09-16T07:15:58;13.90;99.90
45329;DHT22;31063;48.356;10.896;2022-09-16T07:18:25;13.90;99.90
45329;DHT22;31063;48.356;10.896;2022-09-16T07:20:51;14.00;99.90
45329;DHT22;31063;48.356;10.896;2022-09-16T07:23:16;14.00;99.90
45329;DHT22;31063;48.356;10.896;2022-09-16T07:25:42;14.00;99.90
45329;DHT22;31063;48.356;10.896;2022-09-16T07:28:07;14.10;99.90
45329;DHT22;31063;48.356;10.896;2022-09-16T07:30:33;14.20;99.90
45329;DHT22;31063;48.356;10.896;2022-09-16T07:32:59;14.20;99.90
45329;DHT22;31063;48.356;10.896;2022-09-16T07:35:25;14.30;99.90
45329;DHT22;31063;48.356;10.896;2022-09-16T07:37:51;14.40;99.90
45329;DHT22;31063;48.356;10.896;2022-09-16T07:40:16;14.40;99.90
45329;DHT22;31063;48.356;10.896;2022-09-16T07:42:43;14.40;99.90
45329;DHT22;31063;48.356;10.896;2022-09-16T07:45:09;14.50;99.90
45329;DHT22;31063;48.356;10.896;2022-09-16T07:47:34;14.50;99.90
45329;DHT22;31063;48.356;10.896;2022-09-16T07:50:00;14.60;99.90
45329;DHT22;31063;48.356;10.896;2022-09-16T07:52:26;14.60;99.90
45329;DHT22;31063;48.356;10.896;2022-09-16T07:54:57;14.70;99.90
45329;DHT22;31063;48.356;10.896;2022-09-16T07:57:26;14.70;99.90
45329;DHT22;31063;48.356;10.896;2022-09-16T07:59:52;14.80;99.90
45329;DHT22;31063;48.356;10.896;2022-09-16T08:02:17;14.80;99.90
45329;DHT22;31063;48.356;10.896;2022-09-16T08:04:43;14.80;99.90
45329;DHT22;31063;48.356;10.896;2022-09-16T08:07:08;14.80;99.90
45329;DHT22;31063;48.356;10.896;2022-09-16T08:09:34;14.80;99.90
45329;DHT22;31063;48.356;10.896;2022-09-16T08:12:02;14.90;99.90
45329;DHT22;31063;48.356;10.896;2022-09-16T08:14:28;14.90;99.90
45329;DHT22;31063;48.356;10.896;2022-09-16T08:16:53;14.80;99.90
45329;DHT22;31063;48.356;10.896;2022-09-16T08:19:19;14.80;99.90
45329;DHT22;31063;48.356;10.896;2022-09-16T08:21:46;14.80;99.90
45329;DHT22;31063;48.356;10.896;2022-09-16T08:24:12;14.80;99.90
45329;DHT22;31063;48.356;10.896;2022-09-16T08:26:38;14.80;99.90
45329;DHT22;31063;48.356;10.896;2022-09-16T08:29:04;14.80;99.90
45329;DHT22;31063;48.356;10.896;2022-09-16T08:31:29;14.70;99.90
45329;DHT22;31063;48.356;10.896;2022-09-16T08:33:55;14.70;99.90
45329;DHT22;31063;48.356;10.896;2022-09-16T08:36:22;14.70;99.90
45329;DHT22;31063;48.356;10.896;2022-09-16T08:38:50;14.70;99.90
45329;DHT22;31063;48.356;10.896;2022-09-16T08:41:45;14.70;99.90
45329;DHT22;31063;48.356;10.896;2022-09-16T08:47:02;14.60;99.90
45329;DHT22;31063;48.356;10.896;2022-09-16T08:49:42;14.60;99.90
45329;DHT22;31063;48.356;10.896;2022-09-16T08:52:33;14.60;99.90
45329;DHT22;31063;48.356;10.896;2022-09-16T08:55:09;14.60;99.90
45329;DHT22;31063;48.356;10.896;2022-09-16T09:00:25;14.40;99.90
45329;DHT22;31063;48.356;10.896;2022-09-16T09:03:16;14.40;99.90
45329;DHT22;31063;48.356;10.896;2022-09-16T09:05:53;14.30;99.90
45329;DHT22;31063;48.356;10.896;2022-09-16T09:11:24;14.10;99.90
45329;DHT22;31063;48.356;10.896;2022-09-16T09:26:28;13.50;99.90
45329;DHT22;31063;48.356;10.896;2022-09-16T09:39:46;13.10;99.90
45329;DHT22;31063;48.356;10.896;2022-09-16T09:42:27;13.10;99.90
45329;DHT22;31063;48.356;10.896;2022-09-16T09:47:54;13.00;99.90
45329;DHT22;31063;48.356;10.896;2022-09-16T09:50:45;13.00;99.90
45329;DHT22;31063;48.356;10.896;2022-09-16T09:53:28;13.00;99.90
45329;DHT22;31063;48.356;10.896;2022-09-16T09:56:19;12.90;99.90
45329;DHT22;31063;48.356;10.896;2022-09-16T10:01:39;12.80;99.90
45329;DHT22;31063;48.356;10.896;2022-09-16T10:04:14;12.80;99.90
45329;DHT22;31063;48.356;10.896;2022-09-16T10:06:40;12.70;99.90
45329;DHT22;31063;48.356;10.896;2022-09-16T10:09:13;12.60;99.90
45329;DHT22;31063;48.356;10.896;2022-09-16T10:11:48;12.60;99.90
45329;DHT22;31063;48.356;10.896;2022-09-16T10:14:46;12.50;99.90
45329;DHT22;31063;48.356;10.896;2022-09-16T10:17:16;12.50;99.90
45329;DHT22;31063;48.356;10.896;2022-09-16T10:22:25;12.60;99.90
45329;DHT22;31063;48.356;10.896;2022-09-16T10:24:54;12.50;99.90
45329;DHT22;31063;48.356;10.896;2022-09-16T10:27:29;12.50;99.90
45329;DHT22;31063;48.356;10.896;2022-09-16T10:30:12;12.50;99.90
45329;DHT22;31063;48.356;10.896;2022-09-16T10:32:48;12.40;99.90
45329;DHT22;31063;48.356;10.896;2022-09-16T10:35:35;12.50;99.90
45329;DHT22;31063;48.356;10.896;2022-09-16T10:40:35;12.40;99.90
45329;DHT22;31063;48.356;10.896;2022-09-16T10:43:03;12.30;99.90
45329;DHT22;31063;48.356;10.896;2022-09-16T10:45:33;12.30;99.90
45329;DHT22;31063;48.356;10.896;2022-09-16T10:48:06;12.30;99.90
45329;DHT22;31063;48.356;10.896;2022-09-16T10:50:35;12.30;99.90
45329;DHT22;31063;48.356;10.896;2022-09-16T10:53:01;12.30;99.90
45329;DHT22;31063;48.356;10.896;2022-09-16T10:55:29;12.30;99.90
45329;DHT22;31063;48.356;10.896;2022-09-16T10:58:17;12.30;99.90
45329;DHT22;31063;48.356;10.896;2022-09-16T11:06:22;12.10;99.90
45329;DHT22;31063;48.356;10.896;2022-09-16T11:09:13;12.10;99.90
45329;DHT22;31063;48.356;10.896;2022-09-16T11:14:43;12.20;99.90
45329;DHT22;31063;48.356;10.896;2022-09-16T11:17:17;12.20;99.90
45329;DHT22;31063;48.356;10.896;2022-09-16T11:19:50;12.20;99.90
45329;DHT22;31063;48.356;10.896;2022-09-16T11:28:17;12.00;99.90
45329;DHT22;31063;48.356;10.896;2022-09-16T11:31:03;12.00;99.90
45329;DHT22;31063;48.356;10.896;2022-09-16T11:36:36;12.00;99.90
45329;DHT22;31063;48.356;10.896;2022-09-16T11:44:43;12.10;99.90
45329;DHT22;31063;48.356;10.896;2022-09-16T11:58:32;12.00;99.90
45329;DHT22;31063;48.356;10.896;2022-09-16T12:01:01;12.00;99.90
45329;DHT22;31063;48.356;10.896;2022-09-16T12:03:59;12.00;99.90
45329;DHT22;31063;48.356;10.896;2022-09-16T12:06:35;12.00;99.90
45329;DHT22;31063;48.356;10.896;2022-09-16T12:09:13;12.00;99.90
45329;DHT22;31063;48.356;10.896;2022-09-16T12:11:49;12.00;99.90
45329;DHT22;31063;48.356;10.896;2022-09-16T12:16:50;12.10;99.90
45329;DHT22;31063;48.356;10.896;2022-09-16T12:22:34;12.20;99.90
45329;DHT22;31063;48.356;10.896;2022-09-16T12:25:24;12.30;99.90
45329;DHT22;31063;48.356;10.896;2022-09-16T12:28:22;12.30;99.90
45329;DHT22;31063;48.356;10.896;2022-09-16T12:31:41;12.40;99.90
45329;DHT22;31063;48.356;10.896;2022-09-16T12:33:53;12.40;99.90
45329;DHT22;31063;48.356;10.896;2022-09-16T12:36:29;12.40;99.90
45329;DHT22;31063;48.356;10.896;2022-09-16T12:38:57;12.50;99.90
45329;DHT22;31063;48.356;10.896;2022-09-16T12:47:24;12.30;99.90
45329;DHT22;31063;48.356;10.896;2022-09-16T13:00:31;12.50;99.90
45329;DHT22;31063;48.356;10.896;2022-09-16T13:03:14;12.60;99.90
45329;DHT22;31063;48.356;10.896;2022-09-16T13:05:44;12.70;99.90
45329;DHT22;31063;48.356;10.896;2022-09-16T13:08:29;12.80;99.90
45329;DHT22;31063;48.356;10.896;2022-09-16T13:11:06;12.90;99.90
45329;DHT22;31063;48.356;10.896;2022-09-16T13:13:42;12.80;99.90
45329;DHT22;31063;48.356;10.896;2022-09-16T13:16:10;12.90;99.90
45329;DHT22;31063;48.356;10.896;2022-09-16T13:18:44;12.90;99.90
45329;DHT22;31063;48.356;10.896;2022-09-16T13:23:48;13.00;99.90
45329;DHT22;31063;48.356;10.896;2022-09-16T13:26:16;13.00;99.90
45329;DHT22;31063;48.356;10.896;2022-09-16T13:28:43;13.00;99.90
45329;DHT22;31063;48.356;10.896;2022-09-16T13:34:02;12.90;99.90
45329;DHT22;31063;48.356;10.896;2022-09-16T13:36:29;12.90;99.90
45329;DHT22;31063;48.356;10.896;2022-09-16T13:39:10;12.90;99.90
45329;DHT22;31063;48.356;10.896;2022-09-16T13:41:38;12.90;99.90
45329;DHT22;31063;48.356;10.896;2022-09-16T13:44:41;12.90;99.90
45329;DHT22;31063;48.356;10.896;2022-09-16T13:54:55;12.90;99.90
45329;DHT22;31063;48.356;10.896;2022-09-16T14:00:13;13.00;99.90
45329;DHT22;31063;48.356;10.896;2022-09-16T14:02:42;13.00;99.90
45329;DHT22;31063;48.356;10.896;2022-09-16T14:08:10;13.00;99.90
45329;DHT22;31063;48.356;10.896;2022-09-16T14:13:12;13.00;99.90
45329;DHT22;31063;48.356;10.896;2022-09-16T14:15:56;13.00;99.90
45329;DHT22;31063;48.356;10.896;2022-09-16T14:18:26;13.00;99.90
45329;DHT22;31063;48.356;10.896;2022-09-16T14:21:17;13.00;99.90
45329;DHT22;31063;48.356;10.896;2022-09-16T14:23:43;13.00;99.90
45329;DHT22;31063;48.356;10.896;2022-09-16T14:26:10;13.00;99.90
45329;DHT22;31063;48.356;10.896;2022-09-16T14:28:36;13.00;99.90
45329;DHT22;31063;48.356;10.896;2022-09-16T14:31:06;13.00;99.90
45329;DHT22;31063;48.356;10.896;2022-09-16T14:36:12;13.20;99.90
45329;DHT22;31063;48.356;10.896;2022-09-16T14:38:54;13.20;99.90
45329;DHT22;31063;48.356;10.896;2022-09-16T14:41:27;13.20;99.90
45329;DHT22;31063;48.356;10.896;2022-09-16T14:43:56;13.20;99.90
45329;DHT22;31063;48.356;10.896;2022-09-16T14:46:25;13.30;99.90
45329;DHT22;31063;48.356;10.896;2022-09-16T14:48:52;13.30;99.90
45329;DHT22;31063;48.356;10.896;2022-09-16T14:51:23;13.40;99.90
45329;DHT22;31063;48.356;10.896;2022-09-16T14:53:58;13.40;99.90
45329;DHT22;31063;48.356;10.896;2022-09-16T14:56:24;13.50;99.90
45329;DHT22;31063;48.356;10.896;2022-09-16T14:58:52;13.50;99.90
45329;DHT22;31063;48.356;10.896;2022-09-16T15:01:26;13.40;99.90
45329;DHT22;31063;48.356;10.896;2022-09-16T15:06:24;13.40;99.90
45329;DHT22;31063;48.356;10.896;2022-09-16T15:08:55;13.40;99.90
45329;DHT22;31063;48.356;10.896;2022-09-16T15:11:27;13.50;99.90
45329;DHT22;31063;48.356;10.896;2022-09-16T15:13:53;13.50;99.90
45329;DHT22;31063;48.356;10.896;2022-09-16T15:16:21;13.60;99.90
45329;DHT22;31063;48.356;10.896;2022-09-16T15:18:59;13.70;99.90
45329;DHT22;31063;48.356;10.896;2022-09-16T15:21:31;13.80;99.90
45329;DHT22;31063;48.356;10.896;2022-09-16T15:24:00;13.80;99.90
45329;DHT22;31063;48.356;10.896;2022-09-16T15:26:38;13.90;99.90
45329;DHT22;31063;48.356;10.896;2022-09-16T15:29:28;14.00;99.90
45329;DHT22;31063;48.356;10.896;2022-09-16T15:31:52;14.10;99.90
45329;DHT22;31063;48.356;10.896;2022-09-16T15:34:20;14.30;99.90
45329;DHT22;31063;48.356;10.896;2022-09-16T15:42:01;14.40;99.90
45329;DHT22;31063;48.356;10.896;2022-09-16T15:44:31;14.40;99.90
45329;DHT22;31063;48.356;10.896;2022-09-16T15:46:56;14.50;99.90
45329;DHT22;31063;48.356;10.896;2022-09-16T15:49:23;14.60;99.90
45329;DHT22;31063;48.356;10.896;2022-09-16T15:51:51;14.50;99.90
45329;DHT22;31063;48.356;10.896;2022-09-16T15:59:30;14.40;99.90
45329;DHT22;31063;48.356;10.896;2022-09-16T16:02:00;14.30;99.90
45329;DHT22;31063;48.356;10.896;2022-09-16T16:04:29;14.20;99.90
45329;DHT22;31063;48.356;10.896;2022-09-16T16:07:00;14.10;99.90
45329;DHT22;31063;48.356;10.896;2022-09-16T16:11:56;14.00;99.90
45329;DHT22;31063;48.356;10.896;2022-09-16T16:14:22;13.90;99.90
45329;DHT22;31063;48.356;10.896;2022-09-16T16:16:51;13.90;99.90
45329;DHT22;31063;48.356;10.896;2022-09-16T16:19:17;13.80;99.90
45329;DHT22;31063;48.356;10.896;2022-09-16T16:21:43;13.80;99.90
45329;DHT22;31063;48.356;10.896;2022-09-16T16:24:11;13.70;99.90
45329;DHT22;31063;48.356;10.896;2022-09-16T16:26:37;13.70;99.90
45329;DHT22;31063;48.356;10.896;2022-09-16T16:29:02;13.70;99.90
45329;DHT22;31063;48.356;10.896;2022-09-16T16:31:28;13.70;99.90
45329;DHT22;31063;48.356;10.896;2022-09-16T16:33:53;13.60;99.90
45329;DHT22;31063;48.356;10.896;2022-09-16T16:36:20;13.60;99.90
45329;DHT22;31063;48.356;10.896;2022-09-16T16:38:47;13.60;99.90
45329;DHT22;31063;48.356;10.896;2022-09-16T16:41:22;13.60;99.90
45329;DHT22;31063;48.356;10.896;2022-09-16T16:43:49;13.60;99.90
45329;DHT22;31063;48.356;10.896;2022-09-16T16:46:15;13.50;99.90
45329;DHT22;31063;48.356;10.896;2022-09-16T16:48:42;13.50;99.90
45329;DHT22;31063;48.356;10.896;2022-09-16T16:51:10;13.40;99.90
45329;DHT22;31063;48.356;10.896;2022-09-16T16:53:37;13.40;99.90
45329;DHT22;31063;48.356;10.896;2022-09-16T16:56:10;13.40;99.90
45329;DHT22;31063;48.356;10.896;2022-09-16T16:58:37;13.40;99.90
45329;DHT22;31063;48.356;10.896;2022-09-16T17:01:08;13.40;99.90
45329;DHT22;31063;48.356;10.896;2022-09-16T17:03:34;13.40;99.90
45329;DHT22;31063;48.356;10.896;2022-09-16T17:06:00;13.30;99.90
45329;DHT22;31063;48.356;10.896;2022-09-16T17:08:25;13.30;99.90
45329;DHT22;31063;48.356;10.896;2022-09-16T17:11:07;13.20;99.90
45329;DHT22;31063;48.356;10.896;2022-09-16T17:13:35;13.20;99.90
45329;DHT22;31063;48.356;10.896;2022-09-16T17:16:01;13.20;99.90
45329;DHT22;31063;48.356;10.896;2022-09-16T17:18:26;13.20;99.90
45329;DHT22;31063;48.356;10.896;2022-09-16T17:20:52;13.20;99.90
45329;DHT22;31063;48.356;10.896;2022-09-16T17:23:18;13.20;99.90
45329;DHT22;31063;48.356;10.896;2022-09-16T17:25:48;13.20;99.90
45329;DHT22;31063;48.356;10.896;2022-09-16T17:28:16;13.20;99.90
45329;DHT22;31063;48.356;10.896;2022-09-16T17:30:42;13.20;99.90
45329;DHT22;31063;48.356;10.896;2022-09-16T17:33:08;13.10;99.90
45329;DHT22;31063;48.356;10.896;2022-09-16T17:35:34;13.10;99.90
45329;DHT22;31063;48.356;10.896;2022-09-16T17:38:01;13.00;99.90
45329;DHT22;31063;48.356;10.896;2022-09-16T17:40:26;13.00;99.90
45329;DHT22;31063;48.356;10.896;2022-09-16T17:42:52;13.10;99.90
45329;DHT22;31063;48.356;10.896;2022-09-16T17:45:17;13.00;99.90
45329;DHT22;31063;48.356;10.896;2022-09-16T17:47:43;13.00;99.90
45329;DHT22;31063;48.356;10.896;2022-09-16T17:50:09;12.90;99.90
45329;DHT22;31063;48.356;10.896;2022-09-16T17:52:34;12.90;99.90
45329;DHT22;31063;48.356;10.896;2022-09-16T17:55:00;12.90;99.90
45329;DHT22;31063;48.356;10.896;2022-09-16T17:57:26;12.90;99.90
45329;DHT22;31063;48.356;10.896;2022-09-16T17:59:51;12.80;99.90
45329;DHT22;31063;48.356;10.896;2022-09-16T18:02:17;12.80;99.90
45329;DHT22;31063;48.356;10.896;2022-09-16T18:04:43;12.80;99.90
45329;DHT22;31063;48.356;10.896;2022-09-16T18:07:08;12.80;99.90
45329;DHT22;31063;48.356;10.896;2022-09-16T18:09:35;12.80;99.90
45329;DHT22;31063;48.356;10.896;2022-09-16T18:12:01;12.70;99.90
45329;DHT22;31063;48.356;10.896;2022-09-16T18:14:26;12.70;99.90
45329;DHT22;31063;48.356;10.896;2022-09-16T18:16:52;12.70;99.90
45329;DHT22;31063;48.356;10.896;2022-09-16T18:19:18;12.70;99.90
45329;DHT22;31063;48.356;10.896;2022-09-16T18:21:43;12.70;99.90
45329;DHT22;31063;48.356;10.896;2022-09-16T18:24:11;12.60;99.90
45329;DHT22;31063;48.356;10.896;2022-09-16T18:26:38;12.60;99.90
45329;DHT22;31063;48.356;10.896;2022-09-16T18:29:05;12.60;99.90
45329;DHT22;31063;48.356;10.896;2022-09-16T18:31:31;12.50;99.90
45329;DHT22;31063;48.356;10.896;2022-09-16T18:33:57;12.50;99.90
45329;DHT22;31063;48.356;10.896;2022-09-16T18:36:25;12.60;99.90
45329;DHT22;31063;48.356;10.896;2022-09-16T18:38:55;12.50;99.90
45329;DHT22;31063;48.356;10.896;2022-09-16T18:41:34;12.50;99.90
45329;DHT22;31063;48.356;10.896;2022-09-16T18:44:06;12.50;99.90
45329;DHT22;31063;48.356;10.896;2022-09-16T18:46:34;12.50;99.90
45329;DHT22;31063;48.356;10.896;2022-09-16T18:49:00;12.50;99.90
45329;DHT22;31063;48.356;10.896;2022-09-16T18:51:50;12.40;99.90
45329;DHT22;31063;48.356;10.896;2022-09-16T18:54:26;12.40;99.90